createdAt,value
2023-05-10T00:00:29.368Z,12.17
2023-05-10T00:03:16.590Z,12.12
2023-05-10T00:05:48.424Z,12.11
2023-05-10T00:08:20.304Z,12.09
2023-05-10T00:10:54.334Z,11.96
2023-05-10T00:13:26.164Z,11.97
2023-05-10T00:15:57.954Z,11.99
2023-05-10T00:18:29.660Z,11.94
2023-05-10T00:21:01.593Z,11.91
2023-05-10T00:23:33.295Z,11.82
2023-05-10T00:26:05.391Z,11.75
2023-05-10T00:28:37.347Z,11.78
2023-05-10T00:31:09.022Z,11.82
2023-05-10T00:33:40.756Z,11.80
2023-05-10T00:36:12.636Z,11.79
2023-05-10T00:38:44.292Z,11.78
2023-05-10T00:41:16.664Z,11.82
2023-05-10T00:43:49.434Z,11.73
2023-05-10T00:46:22.464Z,11.73
2023-05-10T00:48:54.566Z,11.67
2023-05-10T00:51:26.953Z,11.64
2023-05-10T00:53:58.934Z,11.63
2023-05-10T00:56:30.870Z,11.63
2023-05-10T00:59:03.491Z,11.57
2023-05-10T01:01:35.553Z,11.55
2023-05-10T01:04:07.584Z,11.53
2023-05-10T01:06:39.265Z,11.50
2023-05-10T01:09:12.597Z,11.51
2023-05-10T01:11:44.663Z,11.38
2023-05-10T01:14:18.121Z,11.29
2023-05-10T01:16:51.598Z,11.35
2023-05-10T01:19:27.921Z,11.27
2023-05-10T01:22:09.159Z,11.22
2023-05-10T01:25:02.781Z,11.26
2023-05-10T01:28:16.896Z,11.20
2023-05-10T01:31:10.492Z,11.20
2023-05-10T01:33:48.868Z,11.15
2023-05-10T01:36:31.934Z,11.04
2023-05-10T01:39:11.249Z,11.05
2023-05-10T01:41:51.798Z,11.07
2023-05-10T01:44:31.565Z,10.99
2023-05-10T01:47:08.299Z,10.96
2023-05-10T01:49:46.003Z,10.95
2023-05-10T01:52:21.249Z,10.93
2023-05-10T01:54:58.022Z,10.92
2023-05-10T01:57:34.514Z,10.84
2023-05-10T02:00:09.138Z,10.84
2023-05-10T02:02:50.586Z,10.84
2023-05-10T02:05:24.847Z,10.82
2023-05-10T02:07:57.903Z,10.89
2023-05-10T02:10:30.891Z,10.86
2023-05-10T02:13:04.660Z,10.83
2023-05-10T02:15:38.867Z,10.80
2023-05-10T02:18:12.784Z,10.71
2023-05-10T02:20:45.910Z,10.65
2023-05-10T02:23:19.525Z,10.69
2023-05-10T02:25:53.671Z,10.71
2023-05-10T02:28:29.102Z,10.70
2023-05-10T02:31:01.106Z,10.67
2023-05-10T02:33:36.275Z,10.59
2023-05-10T02:36:09.797Z,10.58
2023-05-10T02:38:43.004Z,10.54
2023-05-10T02:41:15.958Z,10.50
2023-05-10T02:43:48.250Z,10.51
2023-05-10T02:46:20.512Z,10.49
2023-05-10T02:48:52.310Z,10.47
2023-05-10T02:51:30.217Z,10.45
2023-05-10T02:54:08.997Z,10.41
2023-05-10T02:56:47.833Z,10.43
2023-05-10T02:59:19.698Z,10.37
2023-05-10T03:01:51.481Z,10.38
2023-05-10T03:04:23.463Z,10.34
2023-05-10T03:06:56.092Z,10.29
2023-05-10T03:09:28.143Z,10.27
2023-05-10T03:12:10.210Z,10.23
2023-05-10T03:14:54.873Z,10.24
2023-05-10T03:17:38.319Z,10.23
2023-05-10T03:20:12.630Z,10.27
2023-05-10T03:22:49.732Z,10.23
2023-05-10T03:25:23.095Z,10.22
2023-05-10T03:27:56.436Z,10.17
2023-05-10T03:30:30.403Z,10.13
2023-05-10T03:33:08.183Z,10.14
2023-05-10T03:35:42.983Z,10.19
2023-05-10T03:38:14.804Z,10.11
2023-05-10T03:40:46.512Z,10.07
2023-05-10T03:43:18.230Z,10.06
2023-05-10T03:45:50.056Z,10.13
2023-05-10T03:48:21.775Z,10.15
2023-05-10T03:50:53.578Z,10.13
2023-05-10T03:53:25.391Z,10.09
2023-05-10T03:55:57.331Z,10.13
2023-05-10T03:58:29.603Z,10.13
2023-05-10T04:01:01.769Z,10.12
2023-05-10T04:03:33.527Z,10.09
2023-05-10T04:06:06.311Z,10.11
2023-05-10T04:08:38.179Z,10.06
2023-05-10T04:11:10.662Z,10.11
2023-05-10T04:13:43.908Z,10.14
2023-05-10T04:16:15.788Z,10.13
2023-05-10T04:18:47.637Z,10.05
2023-05-10T04:21:19.658Z,10.08
2023-05-10T04:23:51.383Z,10.15
2023-05-10T04:26:23.057Z,10.17
2023-05-10T04:28:54.675Z,10.16
2023-05-10T04:31:27.035Z,10.21
2023-05-10T04:33:58.761Z,10.23
2023-05-10T04:36:30.443Z,10.24
2023-05-10T04:39:03.639Z,10.23
2023-05-10T04:41:35.581Z,10.18
2023-05-10T04:44:08.214Z,10.16
2023-05-10T04:46:40.540Z,10.22
2023-05-10T04:49:12.675Z,10.27
2023-05-10T04:51:44.372Z,10.29
2023-05-10T04:54:16.121Z,10.36
2023-05-10T04:56:48.410Z,10.40
2023-05-10T04:59:20.360Z,10.37
2023-05-10T05:01:52.068Z,10.33
2023-05-10T05:04:25.087Z,10.28
2023-05-10T05:06:56.881Z,10.34
2023-05-10T05:09:28.673Z,10.45
2023-05-10T05:12:01.023Z,10.45
2023-05-10T05:14:32.965Z,10.50
2023-05-10T05:17:04.857Z,10.56
2023-05-10T05:19:36.665Z,10.60
2023-05-10T05:22:10.062Z,10.64
2023-05-10T05:24:41.760Z,10.63
2023-05-10T05:27:13.491Z,10.69
2023-05-10T05:29:45.619Z,10.69
2023-05-10T05:32:17.347Z,10.78
2023-05-10T05:34:49.569Z,10.83
2023-05-10T05:37:22.307Z,10.89
2023-05-10T05:39:52.513Z,10.96
2023-05-10T05:42:24.181Z,11.01
2023-05-10T05:44:56.314Z,11.02
2023-05-10T05:47:28.104Z,11.05
2023-05-10T05:49:59.839Z,11.10
2023-05-10T05:52:32.216Z,11.17
2023-05-10T05:55:04.633Z,11.21
2023-05-10T05:57:36.895Z,11.30
2023-05-10T06:00:08.862Z,11.40
2023-05-10T06:02:47.125Z,11.44
2023-05-10T06:05:19.217Z,11.49
2023-05-10T06:07:50.953Z,11.56
2023-05-10T06:10:22.815Z,11.64
2023-05-10T06:12:55.089Z,11.71
2023-05-10T06:15:27.105Z,11.76
2023-05-10T06:17:58.820Z,11.83
2023-05-10T06:20:32.412Z,11.89
2023-05-10T06:23:04.229Z,11.97
2023-05-10T06:25:36.581Z,12.05
2023-05-10T06:28:08.605Z,12.14
2023-05-10T06:30:40.712Z,12.22
2023-05-10T06:33:12.511Z,12.28
2023-05-10T06:35:44.819Z,12.33
2023-05-10T06:38:16.982Z,12.37
2023-05-10T06:40:48.712Z,12.42
2023-05-10T06:43:20.811Z,12.48
2023-05-10T06:45:53.223Z,12.55
2023-05-10T06:48:25.237Z,12.63
2023-05-10T06:50:56.968Z,12.68
2023-05-10T06:53:28.838Z,12.70
2023-05-10T06:56:00.867Z,12.76
2023-05-10T06:58:34.553Z,12.85
2023-05-10T07:01:07.312Z,12.93
2023-05-10T07:03:39.214Z,13.01
2023-05-10T07:06:21.570Z,13.06
2023-05-10T07:08:58.086Z,13.10
2023-05-10T07:11:29.937Z,13.17
2023-05-10T07:14:01.681Z,13.25
2023-05-10T07:16:33.839Z,13.34
2023-05-10T07:19:06.265Z,13.39
2023-05-10T07:21:38.471Z,13.49
2023-05-10T07:24:10.443Z,13.61
2023-05-10T07:26:42.135Z,13.66
2023-05-10T07:29:13.872Z,13.73
2023-05-10T07:31:45.719Z,13.79
2023-05-10T07:34:17.549Z,13.92
2023-05-10T07:36:49.420Z,14.01
2023-05-10T07:39:27.282Z,14.07
2023-05-10T07:41:59.774Z,14.12
2023-05-10T07:44:31.414Z,14.21
2023-05-10T07:47:03.379Z,14.33
2023-05-10T07:49:35.139Z,14.41
2023-05-10T07:52:07.900Z,14.50
2023-05-10T07:54:38.865Z,14.60
2023-05-10T07:57:10.717Z,14.66
2023-05-10T07:59:42.591Z,14.73
2023-05-10T08:02:14.425Z,14.81
2023-05-10T08:04:46.547Z,14.92
2023-05-10T08:07:18.742Z,15.03
2023-05-10T08:09:50.555Z,15.10
2023-05-10T08:12:22.664Z,15.12
2023-05-10T08:14:54.376Z,15.19
2023-05-10T08:17:26.426Z,15.31
2023-05-10T08:19:58.527Z,15.36
2023-05-10T08:22:30.315Z,15.41
2023-05-10T08:25:02.385Z,15.48
2023-05-10T08:27:36.272Z,15.54
2023-05-10T08:30:10.655Z,15.59
2023-05-10T08:32:42.650Z,15.64
2023-05-10T08:35:14.785Z,15.79
2023-05-10T08:37:46.769Z,15.91
2023-05-10T08:40:21.065Z,15.92
2023-05-10T08:43:00.948Z,15.98
2023-05-10T08:45:37.774Z,16.03
2023-05-10T08:48:11.722Z,16.07
2023-05-10T08:50:44.850Z,16.17
2023-05-10T08:53:18.383Z,16.22
2023-05-10T08:55:50.711Z,16.37
2023-05-10T08:58:22.886Z,16.46
2023-05-10T09:00:55.150Z,16.53
2023-05-10T09:03:27.584Z,16.65
2023-05-10T09:05:59.874Z,16.76
2023-05-10T09:08:32.121Z,16.81
2023-05-10T09:11:04.138Z,16.90
2023-05-10T09:13:37.426Z,16.95
2023-05-10T09:16:20.503Z,17.02
2023-05-10T09:18:54.054Z,17.12
2023-05-10T09:21:24.643Z,17.37
2023-05-10T09:23:56.559Z,17.62
2023-05-10T09:26:28.728Z,17.70
2023-05-10T09:29:02.274Z,17.86
2023-05-10T09:31:53.455Z,17.91
2023-05-10T09:34:34.489Z,18.07
2023-05-10T09:37:06.936Z,18.25
2023-05-10T09:39:39.951Z,18.31
2023-05-10T09:42:13.296Z,18.49
2023-05-10T09:44:47.297Z,18.65
2023-05-10T09:47:22.034Z,18.81
2023-05-10T09:49:57.745Z,18.93
2023-05-10T09:52:30.050Z,19.03
2023-05-10T09:55:02.130Z,19.21
2023-05-10T09:57:35.268Z,19.33
2023-05-10T10:00:10.784Z,19.49
2023-05-10T10:02:58.363Z,19.63
2023-05-10T10:05:34.209Z,19.74
2023-05-10T10:08:07.610Z,19.77
2023-05-10T10:10:39.734Z,19.78
2023-05-10T10:13:12.073Z,19.82
2023-05-10T10:15:46.887Z,19.88
2023-05-10T10:18:19.909Z,19.92
2023-05-10T10:20:51.816Z,20.03
2023-05-10T10:23:24.506Z,20.09
2023-05-10T10:25:57.537Z,20.07
2023-05-10T10:28:40.186Z,20.04
2023-05-10T10:31:26.537Z,20.22
2023-05-10T10:34:07.810Z,20.33
2023-05-10T10:36:47.313Z,20.40
2023-05-10T10:39:20.023Z,20.35
2023-05-10T10:41:54.285Z,20.40
2023-05-10T10:44:37.533Z,20.54
2023-05-10T10:47:30.564Z,20.58
2023-05-10T10:50:10.478Z,20.65
2023-05-10T10:52:42.893Z,20.75
2023-05-10T10:55:14.574Z,20.81
2023-05-10T10:57:52.432Z,20.87
2023-05-10T11:00:27.427Z,20.89
2023-05-10T11:03:01.597Z,20.96
2023-05-10T11:05:47.483Z,20.99
2023-05-10T11:08:22.699Z,21.00
2023-05-10T11:11:07.737Z,21.07
2023-05-10T11:13:42.090Z,21.22
2023-05-10T11:16:16.531Z,21.39
2023-05-10T11:19:06.019Z,21.55
2023-05-10T11:21:48.935Z,21.47
2023-05-10T11:24:22.733Z,21.49
2023-05-10T11:26:55.396Z,21.59
2023-05-10T11:29:27.209Z,21.74
2023-05-10T11:32:01.205Z,21.71
2023-05-10T11:34:35.017Z,21.79
2023-05-10T11:37:06.822Z,21.87
2023-05-10T11:39:38.557Z,21.92
2023-05-10T11:42:12.125Z,21.97
2023-05-10T11:44:46.664Z,21.99
2023-05-10T11:47:18.500Z,22.01
2023-05-10T11:49:51.468Z,22.11
2023-05-10T11:52:23.593Z,22.06
2023-05-10T11:54:59.575Z,22.03
2023-05-10T11:57:32.266Z,22.14
2023-05-10T12:00:04.795Z,22.23
2023-05-10T12:02:40.222Z,22.33
2023-05-10T12:05:13.911Z,22.29
2023-05-10T12:07:45.770Z,22.23
2023-05-10T12:10:19.220Z,22.16
2023-05-10T12:12:53.980Z,22.15
2023-05-10T12:15:26.605Z,22.16
2023-05-10T12:18:00.895Z,22.20
2023-05-10T12:20:33.652Z,22.27
2023-05-10T12:23:06.662Z,22.27
2023-05-10T12:25:39.541Z,22.25
2023-05-10T12:28:12.361Z,22.24
2023-05-10T12:30:44.235Z,22.22
2023-05-10T12:33:17.668Z,22.23
2023-05-10T12:35:51.670Z,22.20
2023-05-10T12:38:36.523Z,22.13
2023-05-10T12:41:11.193Z,22.14
2023-05-10T12:43:44.186Z,22.22
2023-05-10T12:46:15.083Z,22.25
2023-05-10T12:48:53.252Z,22.20
2023-05-10T12:51:29.816Z,22.24
2023-05-10T12:54:01.780Z,22.30
2023-05-10T12:56:33.703Z,22.32
2023-05-10T12:59:05.876Z,22.38
2023-05-10T13:01:37.806Z,22.41
2023-05-10T13:04:09.836Z,22.32
2023-05-10T13:06:41.772Z,22.36
2023-05-10T13:09:13.714Z,22.41
2023-05-10T13:11:46.304Z,22.41
2023-05-10T13:14:16.617Z,22.41
2023-05-10T13:16:48.431Z,22.53
2023-05-10T13:19:20.637Z,22.63
2023-05-10T13:21:52.458Z,22.66
2023-05-10T13:24:24.917Z,22.69
2023-05-10T13:26:57.120Z,22.75
2023-05-10T13:29:29.272Z,22.79
2023-05-10T13:32:01.507Z,22.76
2023-05-10T13:34:33.697Z,22.82
2023-05-10T13:37:05.681Z,22.91
2023-05-10T13:39:38.489Z,23.03
2023-05-10T13:42:10.429Z,23.07
2023-05-10T13:44:42.380Z,23.10
2023-05-10T13:47:14.628Z,23.10
2023-05-10T13:49:46.657Z,23.12
2023-05-10T13:52:19.224Z,23.16
2023-05-10T13:54:52.954Z,23.17
2023-05-10T13:57:25.553Z,23.13
2023-05-10T13:59:58.560Z,23.24
2023-05-10T14:02:31.551Z,23.33
2023-05-10T14:05:04.990Z,23.46
2023-05-10T14:07:37.768Z,23.52
2023-05-10T14:10:12.091Z,23.50
2023-05-10T14:12:44.862Z,23.54
2023-05-10T14:15:18.309Z,23.67
2023-05-10T14:17:50.551Z,23.88
2023-05-10T14:20:22.550Z,23.86
2023-05-10T14:22:54.350Z,23.72
2023-05-10T14:25:26.606Z,23.65
2023-05-10T14:27:58.567Z,23.57
2023-05-10T14:30:30.250Z,23.78
2023-05-10T14:33:02.144Z,23.59
2023-05-10T14:35:34.082Z,23.66
2023-05-10T14:38:06.259Z,23.53
2023-05-10T14:40:38.259Z,23.08
2023-05-10T14:43:10.262Z,23.09
2023-05-10T14:45:42.377Z,23.06
2023-05-10T14:48:16.389Z,23.01
2023-05-10T14:50:50.617Z,23.31
2023-05-10T14:53:42.050Z,23.59
2023-05-10T14:56:14.861Z,23.80
2023-05-10T14:58:47.468Z,23.48
2023-05-10T15:01:18.370Z,23.61
2023-05-10T15:03:52.089Z,23.51
2023-05-10T15:06:35.200Z,23.32
2023-05-10T15:09:08.553Z,23.04
2023-05-10T15:11:40.987Z,22.85
2023-05-10T15:14:13.629Z,23.28
2023-05-10T15:16:46.323Z,23.62
2023-05-10T15:19:18.413Z,24.03
2023-05-10T15:21:52.429Z,24.27
2023-05-10T15:24:24.226Z,24.38
2023-05-10T15:26:57.031Z,24.38
2023-05-10T15:29:28.917Z,24.47
2023-05-10T15:32:00.568Z,24.44
2023-05-10T15:34:33.750Z,24.21
2023-05-10T15:37:07.205Z,23.90
2023-05-10T15:39:39.365Z,24.00
2023-05-10T15:42:11.251Z,24.17
2023-05-10T15:44:44.798Z,24.31
2023-05-10T15:47:16.552Z,24.74
2023-05-10T15:49:48.253Z,24.36
2023-05-10T15:52:21.300Z,24.09
2023-05-10T15:54:53.155Z,23.77
2023-05-10T15:57:24.990Z,23.66
2023-05-10T15:59:57.971Z,23.82
2023-05-10T16:02:30.399Z,23.94
2023-05-10T16:05:02.257Z,24.04
2023-05-10T16:07:35.096Z,23.64
2023-05-10T16:10:08.510Z,23.80
2023-05-10T16:12:40.570Z,24.03
2023-05-10T16:15:13.432Z,24.25
2023-05-10T16:17:45.237Z,24.50
2023-05-10T16:20:17.040Z,24.69
2023-05-10T16:22:48.916Z,25.03
2023-05-10T16:25:20.682Z,25.27
2023-05-10T16:27:52.722Z,25.47
2023-05-10T16:30:27.196Z,25.65
2023-05-10T16:32:59.406Z,25.71
2023-05-10T16:35:31.653Z,25.29
2023-05-10T16:38:04.023Z,24.69
2023-05-10T16:40:34.389Z,24.68
2023-05-10T16:43:06.250Z,24.89
2023-05-10T16:45:38.029Z,25.05
2023-05-10T16:48:10.551Z,24.64
2023-05-10T16:50:46.042Z,24.34
2023-05-10T16:53:18.106Z,23.93
2023-05-10T16:55:50.168Z,23.48
2023-05-10T16:58:20.900Z,22.99
2023-05-10T17:00:52.928Z,22.73
2023-05-10T17:03:25.328Z,22.43
2023-05-10T17:05:57.019Z,22.24
2023-05-10T17:08:28.866Z,22.17
2023-05-10T17:11:04.179Z,22.03
2023-05-10T17:13:36.185Z,22.02
2023-05-10T17:16:08.459Z,21.93
2023-05-10T17:18:42.366Z,21.90
2023-05-10T17:21:14.224Z,21.81
2023-05-10T17:23:46.386Z,21.62
2023-05-10T17:26:18.158Z,21.49
2023-05-10T17:28:49.997Z,21.36
2023-05-10T17:31:21.863Z,21.33
2023-05-10T17:33:53.700Z,21.23
2023-05-10T17:36:25.818Z,21.10
2023-05-10T17:38:58.053Z,21.00
2023-05-10T17:41:30.041Z,20.87
2023-05-10T17:44:02.025Z,20.80
2023-05-10T17:46:33.817Z,20.72
2023-05-10T17:49:05.770Z,20.62
2023-05-10T17:51:37.681Z,20.52
2023-05-10T17:54:09.693Z,20.39
2023-05-10T17:56:41.939Z,20.33
2023-05-10T17:59:13.743Z,20.22
2023-05-10T18:01:45.575Z,20.13
2023-05-10T18:04:17.717Z,20.11
2023-05-10T18:06:49.623Z,20.07
2023-05-10T18:09:21.502Z,20.03
2023-05-10T18:11:53.615Z,19.93
2023-05-10T18:14:39.093Z,19.72
2023-05-10T18:17:14.746Z,19.64
2023-05-10T18:19:48.735Z,19.58
2023-05-10T18:22:23.216Z,19.49
2023-05-10T18:24:55.522Z,19.42
2023-05-10T18:27:27.296Z,19.36
2023-05-10T18:29:59.655Z,19.32
2023-05-10T18:32:31.658Z,19.28
2023-05-10T18:35:04.382Z,19.17
2023-05-10T18:37:38.432Z,19.12
2023-05-10T18:40:14.475Z,19.08
2023-05-10T18:42:46.772Z,19.02
2023-05-10T18:45:19.327Z,18.93
2023-05-10T18:47:51.355Z,18.89
2023-05-10T18:50:23.328Z,18.82
2023-05-10T18:52:56.093Z,18.75
2023-05-10T18:55:28.452Z,18.72
2023-05-10T18:58:00.425Z,18.65
2023-05-10T19:00:32.439Z,18.64
2023-05-10T19:03:05.036Z,18.57
2023-05-10T19:05:37.174Z,18.53
2023-05-10T19:08:09.001Z,18.49
2023-05-10T19:10:40.894Z,18.46
2023-05-10T19:13:12.689Z,18.42
2023-05-10T19:15:44.613Z,18.29
2023-05-10T19:18:16.426Z,18.24
2023-05-10T19:20:48.450Z,18.18
2023-05-10T19:23:20.320Z,18.12
2023-05-10T19:25:52.083Z,18.13
2023-05-10T19:28:23.797Z,18.09
2023-05-10T19:30:55.585Z,18.04
2023-05-10T19:33:27.383Z,17.98
2023-05-10T19:35:59.245Z,17.91
2023-05-10T19:38:31.108Z,17.87
2023-05-10T19:41:02.954Z,17.84
2023-05-10T19:43:36.942Z,17.85
2023-05-10T19:46:09.760Z,17.81
2023-05-10T19:48:42.118Z,17.71
2023-05-10T19:51:14.915Z,17.66
2023-05-10T19:53:46.961Z,17.64
2023-05-10T19:56:19.504Z,17.58
2023-05-10T19:58:51.170Z,17.57
2023-05-10T20:01:22.915Z,17.54
2023-05-10T20:03:55.274Z,17.52
2023-05-10T20:06:27.365Z,17.48
2023-05-10T20:08:59.406Z,17.46
2023-05-10T20:11:31.257Z,17.39
2023-05-10T20:14:03.353Z,17.38
2023-05-10T20:16:35.194Z,17.36
2023-05-10T20:19:07.323Z,17.33
2023-05-10T20:21:39.379Z,17.24
2023-05-10T20:24:11.906Z,17.17
2023-05-10T20:26:42.706Z,17.10
2023-05-10T20:29:14.526Z,17.07
2023-05-10T20:31:46.866Z,16.97
2023-05-10T20:34:19.255Z,16.90
2023-05-10T20:36:52.651Z,16.84
2023-05-10T20:39:24.377Z,16.84
2023-05-10T20:41:56.579Z,16.80
2023-05-10T20:44:28.426Z,16.81
2023-05-10T20:47:00.991Z,16.76
2023-05-10T20:49:36.191Z,16.72
2023-05-10T20:52:09.024Z,16.68
2023-05-10T20:54:41.454Z,16.64
2023-05-10T20:57:13.787Z,16.59
2023-05-10T20:59:45.771Z,16.59
2023-05-10T21:02:17.728Z,16.53
2023-05-10T21:04:49.915Z,16.50
2023-05-10T21:07:22.163Z,16.46
2023-05-10T21:09:54.018Z,16.36
2023-05-10T21:12:25.866Z,16.33
2023-05-10T21:14:58.305Z,16.32
2023-05-10T21:17:30.272Z,16.32
2023-05-10T21:20:02.321Z,16.15
2023-05-10T21:22:34.803Z,16.14
2023-05-10T21:25:05.813Z,16.14
2023-05-10T21:27:38.297Z,16.14
2023-05-10T21:30:12.003Z,16.18
2023-05-10T21:32:44.188Z,16.14
2023-05-10T21:35:16.995Z,16.10
2023-05-10T21:37:49.544Z,16.06
2023-05-10T21:40:20.796Z,15.97
2023-05-10T21:42:53.867Z,15.94
2023-05-10T21:45:26.636Z,15.87
2023-05-10T21:47:58.765Z,15.85
2023-05-10T21:50:30.904Z,15.75
2023-05-10T21:53:03.660Z,15.77
2023-05-10T21:55:35.952Z,15.75
2023-05-10T21:58:07.734Z,15.62
2023-05-10T22:00:40.027Z,15.57
2023-05-10T22:03:12.116Z,15.58
2023-05-10T22:05:44.383Z,15.59
2023-05-10T22:08:16.556Z,15.49
2023-05-10T22:10:48.773Z,15.51
2023-05-10T22:13:20.886Z,15.50
2023-05-10T22:15:53.479Z,15.42
2023-05-10T22:18:25.837Z,15.34
2023-05-10T22:20:57.908Z,15.34
2023-05-10T22:23:30.159Z,15.28
2023-05-10T22:26:04.104Z,15.22
2023-05-10T22:28:36.392Z,15.22
2023-05-10T22:31:13.786Z,15.19
2023-05-10T22:33:45.867Z,15.15
2023-05-10T22:36:17.935Z,15.14
2023-05-10T22:38:50.014Z,15.03
2023-05-10T22:41:22.395Z,14.89
2023-05-10T22:43:53.692Z,14.86
2023-05-10T22:46:25.847Z,14.83
2023-05-10T22:48:58.248Z,14.83
2023-05-10T22:51:30.233Z,14.80
2023-05-10T22:54:02.341Z,14.83
2023-05-10T22:56:34.839Z,14.79
2023-05-10T22:59:07.096Z,14.72
2023-05-10T23:01:39.215Z,14.71
2023-05-10T23:04:11.199Z,14.67
2023-05-10T23:06:43.231Z,14.57
2023-05-10T23:09:15.518Z,14.59
2023-05-10T23:11:47.331Z,14.62
2023-05-10T23:14:20.061Z,14.54
2023-05-10T23:16:51.978Z,14.51
2023-05-10T23:19:24.591Z,14.42
2023-05-10T23:21:56.250Z,14.39
2023-05-10T23:24:27.970Z,14.39
2023-05-10T23:26:59.664Z,14.39
2023-05-10T23:29:32.502Z,14.32
2023-05-10T23:32:04.297Z,14.33
2023-05-10T23:34:36.054Z,14.19
2023-05-10T23:37:07.750Z,14.20
2023-05-10T23:39:39.675Z,14.24
2023-05-10T23:42:11.481Z,14.28
2023-05-10T23:44:43.073Z,14.29
2023-05-10T23:47:14.779Z,14.27
2023-05-10T23:49:46.789Z,14.22
2023-05-10T23:52:18.455Z,14.16
2023-05-10T23:54:50.149Z,14.14
2023-05-10T23:57:21.883Z,14.13
2023-05-10T23:59:53.650Z,14.10
